createdAt,value
2023-08-20T00:00:19.449Z,15.55
2023-08-20T00:02:49.083Z,14.80
2023-08-20T00:05:18.680Z,17.75
2023-08-20T00:07:47.393Z,17.30
2023-08-20T00:10:15.768Z,15.52
2023-08-20T00:12:44.196Z,15.50
2023-08-20T00:15:14.203Z,15.70
2023-08-20T00:17:43.655Z,17.17
2023-08-20T00:20:14.482Z,14.77
2023-08-20T00:22:46.308Z,14.57
2023-08-20T00:25:15.999Z,14.80
2023-08-20T00:27:44.644Z,16.23
2023-08-20T00:30:15.552Z,19.25
2023-08-20T00:32:44.112Z,15.60
2023-08-20T00:35:12.864Z,15.23
2023-08-20T00:37:42.027Z,16.15
2023-08-20T00:40:12.406Z,14.02
2023-08-20T00:42:40.829Z,14.20
2023-08-20T00:45:10.536Z,17.90
2023-08-20T00:47:40.583Z,15.75
2023-08-20T00:50:10.124Z,14.45
2023-08-20T00:52:38.651Z,15.70
2023-08-20T00:55:10.497Z,15.32
2023-08-20T00:57:39.521Z,15.57
2023-08-20T01:00:10.151Z,15.80
2023-08-20T01:02:40.419Z,14.98
2023-08-20T01:05:10.888Z,16.35
2023-08-20T01:07:51.623Z,15.02
2023-08-20T01:10:24.019Z,15.70
2023-08-20T01:12:52.499Z,16.17
2023-08-20T01:15:21.206Z,17.17
2023-08-20T01:17:51.414Z,16.38
2023-08-20T01:20:20.210Z,16.67
2023-08-20T01:23:29.078Z,15.80
2023-08-20T01:26:15.539Z,18.92
2023-08-20T01:28:45.313Z,17.42
2023-08-20T01:31:13.798Z,17.30
2023-08-20T01:33:42.750Z,20.40
2023-08-20T01:36:11.916Z,24.80
2023-08-20T01:38:40.400Z,23.80
2023-08-20T01:41:08.868Z,25.42
2023-08-20T01:43:37.425Z,24.98
2023-08-20T01:46:07.388Z,26.23
2023-08-20T01:48:35.937Z,25.02
2023-08-20T01:51:04.512Z,21.67
2023-08-20T01:53:33.209Z,23.35
2023-08-20T01:56:01.614Z,23.30
2023-08-20T01:58:30.182Z,22.20
2023-08-20T02:00:58.603Z,25.02
2023-08-20T02:03:28.493Z,21.50
2023-08-20T02:05:57.052Z,24.48
2023-08-20T02:08:25.777Z,21.13
2023-08-20T02:11:02.853Z,23.42
2023-08-20T02:13:31.441Z,22.80
2023-08-20T02:16:03.339Z,21.20
2023-08-20T02:18:33.408Z,21.38
2023-08-20T02:21:02.048Z,22.80
2023-08-20T02:23:30.473Z,19.75
2023-08-20T02:25:59.349Z,23.88
2023-08-20T02:28:28.043Z,21.55
2023-08-20T02:30:58.883Z,20.02
2023-08-20T02:33:27.457Z,20.23
2023-08-20T02:35:57.307Z,22.00
2023-08-20T02:38:25.784Z,23.83
2023-08-20T02:40:54.290Z,22.48
2023-08-20T02:43:22.685Z,27.02
2023-08-20T02:45:51.236Z,23.83
2023-08-20T02:48:20.791Z,27.15
2023-08-20T02:50:49.382Z,31.05
2023-08-20T02:53:19.224Z,24.92
2023-08-20T02:55:47.789Z,30.35
2023-08-20T02:58:16.255Z,25.10
2023-08-20T03:00:46.184Z,25.73
2023-08-20T03:03:15.091Z,24.63
2023-08-20T03:05:44.059Z,27.83
2023-08-20T03:08:12.541Z,31.50
2023-08-20T03:10:42.301Z,29.05
2023-08-20T03:13:10.952Z,28.27
2023-08-20T03:15:39.664Z,29.13
2023-08-20T03:18:08.994Z,28.00
2023-08-20T03:20:37.507Z,27.75
2023-08-20T03:23:06.455Z,28.73
2023-08-20T03:25:34.893Z,25.50
2023-08-20T03:28:05.056Z,27.35
2023-08-20T03:30:34.938Z,27.80
2023-08-20T03:33:03.422Z,24.08
2023-08-20T03:35:31.961Z,24.88
2023-08-20T03:38:00.509Z,32.70
2023-08-20T03:40:30.146Z,26.60
2023-08-20T03:42:58.659Z,25.75
2023-08-20T03:45:28.677Z,25.35
2023-08-20T03:47:57.245Z,26.50
2023-08-20T03:50:25.877Z,26.10
2023-08-20T03:52:54.357Z,28.65
2023-08-20T03:55:22.811Z,25.15
2023-08-20T03:57:51.527Z,27.08
2023-08-20T04:00:20.068Z,24.83
2023-08-20T04:02:50.028Z,25.88
2023-08-20T04:05:18.572Z,23.35
2023-08-20T04:07:47.230Z,27.88
2023-08-20T04:10:16.027Z,21.95
2023-08-20T04:12:44.587Z,21.70
2023-08-20T04:15:13.013Z,21.90
2023-08-20T04:17:41.522Z,23.83
2023-08-20T04:20:12.952Z,23.38
2023-08-20T04:22:41.454Z,20.15
2023-08-20T04:25:10.955Z,23.15
2023-08-20T04:27:39.546Z,21.60
2023-08-20T04:30:10.063Z,21.92
2023-08-20T04:32:38.669Z,20.25
2023-08-20T04:35:08.156Z,19.90
2023-08-20T04:37:38.455Z,20.30
2023-08-20T04:40:09.465Z,20.25
2023-08-20T04:42:37.920Z,19.67
2023-08-20T04:45:08.008Z,20.25
2023-08-20T04:47:37.469Z,20.98
2023-08-20T04:50:07.867Z,19.17
2023-08-20T04:52:37.709Z,21.65
2023-08-20T04:55:07.584Z,22.23
2023-08-20T04:57:36.389Z,20.25
2023-08-20T05:00:06.643Z,20.23
2023-08-20T05:02:35.513Z,21.67
2023-08-20T05:05:04.545Z,20.70
2023-08-20T05:07:33.338Z,23.55
2023-08-20T05:10:03.669Z,23.65
2023-08-20T05:12:32.111Z,25.35
2023-08-20T05:15:00.634Z,20.17
2023-08-20T05:17:29.171Z,19.95
2023-08-20T05:19:57.726Z,22.95
2023-08-20T05:22:26.640Z,22.10
2023-08-20T05:24:55.177Z,21.50
2023-08-20T05:27:25.093Z,24.90
2023-08-20T05:29:53.582Z,21.02
2023-08-20T05:32:21.993Z,20.25
2023-08-20T05:34:50.458Z,20.48
2023-08-20T05:37:18.888Z,21.63
2023-08-20T05:39:47.636Z,20.38
2023-08-20T05:42:16.073Z,19.02
2023-08-20T05:44:45.826Z,21.48
2023-08-20T05:47:14.294Z,20.17
2023-08-20T05:49:42.767Z,20.52
2023-08-20T05:52:11.284Z,20.60
2023-08-20T05:54:39.736Z,22.63
2023-08-20T05:57:09.830Z,21.25
2023-08-20T05:59:38.278Z,19.83
2023-08-20T06:02:08.161Z,26.20
2023-08-20T06:04:36.592Z,20.00
2023-08-20T06:07:05.008Z,16.90
2023-08-20T06:09:33.442Z,19.25
2023-08-20T06:12:01.880Z,19.73
2023-08-20T06:14:30.434Z,19.08
2023-08-20T06:16:58.940Z,18.92
2023-08-20T06:19:28.734Z,18.98
2023-08-20T06:21:57.170Z,16.77
2023-08-20T06:24:25.741Z,20.67
2023-08-20T06:26:54.304Z,18.88
2023-08-20T06:29:23.956Z,17.30
2023-08-20T06:31:52.536Z,22.20
2023-08-20T06:34:20.964Z,18.65
2023-08-20T06:36:51.324Z,18.98
2023-08-20T06:39:21.129Z,19.23
2023-08-20T06:41:49.589Z,18.88
2023-08-20T06:44:18.191Z,18.30
2023-08-20T06:46:46.624Z,18.02
2023-08-20T06:49:15.314Z,17.33
2023-08-20T06:51:43.786Z,16.48
2023-08-20T06:54:14.070Z,17.55
2023-08-20T06:56:42.518Z,17.10
2023-08-20T06:59:11.653Z,18.27
2023-08-20T07:01:40.232Z,17.60
2023-08-20T07:04:08.900Z,15.68
2023-08-20T07:06:37.379Z,15.60
2023-08-20T07:09:06.435Z,15.27
2023-08-20T07:11:36.206Z,16.75
2023-08-20T07:14:05.081Z,14.68
2023-08-20T07:16:34.085Z,14.70
2023-08-20T07:19:02.565Z,15.00
2023-08-20T07:21:31.136Z,14.57
2023-08-20T07:23:59.515Z,15.70
2023-08-20T07:26:28.076Z,16.83
2023-08-20T07:29:01.168Z,17.85
2023-08-20T07:31:31.137Z,14.48
2023-08-20T07:34:04.685Z,15.18
2023-08-20T07:36:33.885Z,15.20
2023-08-20T07:39:03.197Z,16.73
2023-08-20T07:41:31.949Z,15.15
2023-08-20T07:44:01.765Z,17.02
2023-08-20T07:46:30.221Z,17.45
2023-08-20T07:48:58.738Z,16.13
2023-08-20T07:51:27.175Z,17.92
2023-08-20T07:53:55.658Z,15.30
2023-08-20T07:56:24.055Z,15.45
2023-08-20T07:58:52.609Z,16.67
2023-08-20T08:01:23.718Z,16.63
2023-08-20T08:03:52.259Z,15.73
2023-08-20T08:06:22.819Z,19.85
2023-08-20T08:08:51.214Z,16.92
2023-08-20T08:11:19.602Z,15.77
2023-08-20T08:13:48.156Z,18.92
2023-08-20T08:16:16.808Z,17.55
2023-08-20T08:18:46.737Z,16.05
2023-08-20T08:21:15.216Z,16.15
2023-08-20T08:23:43.606Z,18.23
2023-08-20T08:26:12.127Z,15.68
2023-08-20T08:28:40.533Z,15.82
2023-08-20T08:31:09.416Z,18.95
2023-08-20T08:33:37.826Z,18.58
2023-08-20T08:36:08.023Z,15.18
2023-08-20T08:38:37.420Z,14.88
2023-08-20T08:41:06.490Z,16.58
2023-08-20T08:43:35.043Z,15.50
2023-08-20T08:46:04.356Z,19.00
2023-08-20T08:48:32.848Z,20.70
2023-08-20T08:51:01.375Z,15.32
2023-08-20T08:53:31.212Z,15.90
2023-08-20T08:55:59.718Z,15.77
2023-08-20T08:58:28.416Z,15.00
2023-08-20T09:00:56.841Z,16.10
2023-08-20T09:03:25.554Z,17.02
2023-08-20T09:05:57.963Z,14.73
2023-08-20T09:08:31.541Z,15.25
2023-08-20T09:11:01.935Z,14.32
2023-08-20T09:13:35.983Z,13.82
2023-08-20T09:16:07.042Z,15.20
2023-08-20T09:18:35.855Z,14.35
2023-08-20T09:21:04.601Z,12.38
2023-08-20T09:23:34.429Z,14.13
2023-08-20T09:26:04.257Z,14.68
2023-08-20T09:28:34.270Z,15.68
2023-08-20T09:31:03.724Z,17.00
2023-08-20T09:33:32.434Z,14.25
2023-08-20T09:36:01.081Z,15.23
2023-08-20T09:38:29.904Z,14.38
2023-08-20T09:41:01.844Z,15.02
2023-08-20T09:43:31.459Z,16.27
2023-08-20T09:45:59.993Z,14.48
2023-08-20T09:48:28.943Z,17.30
2023-08-20T09:50:59.284Z,14.73
2023-08-20T09:53:29.519Z,16.00
2023-08-20T09:56:05.170Z,15.40
2023-08-20T09:58:33.616Z,15.55
2023-08-20T10:01:02.141Z,17.10
2023-08-20T10:03:32.045Z,15.82
2023-08-20T10:06:01.688Z,15.45
2023-08-20T10:08:30.219Z,14.30
2023-08-20T10:11:00.029Z,14.95
2023-08-20T10:13:28.504Z,13.57
2023-08-20T10:15:57.632Z,14.07
2023-08-20T10:18:26.211Z,15.60
2023-08-20T10:20:54.880Z,15.23
2023-08-20T10:23:24.227Z,14.18
2023-08-20T10:25:54.190Z,13.13
2023-08-20T10:28:28.109Z,15.52
2023-08-20T10:31:07.590Z,11.75
2023-08-20T10:33:37.707Z,11.38
2023-08-20T10:36:18.909Z,13.13
2023-08-20T10:38:48.513Z,11.75
2023-08-20T10:41:18.241Z,13.93
2023-08-20T10:43:51.024Z,11.07
2023-08-20T10:46:21.104Z,11.35
2023-08-20T10:48:51.384Z,12.25
2023-08-20T10:51:20.858Z,12.73
2023-08-20T10:54:06.273Z,14.60
2023-08-20T10:56:45.028Z,12.13
2023-08-20T10:59:18.963Z,11.40
2023-08-20T11:01:47.990Z,11.70
2023-08-20T11:04:17.926Z,14.57
2023-08-20T11:06:47.018Z,11.95
2023-08-20T11:09:16.322Z,10.50
2023-08-20T11:11:44.850Z,10.40
2023-08-20T11:14:16.678Z,10.30
2023-08-20T11:16:45.540Z,11.77
2023-08-20T11:19:14.114Z,11.27
2023-08-20T11:21:44.130Z,11.45
2023-08-20T11:24:13.035Z,10.38
2023-08-20T11:26:42.634Z,10.73
2023-08-20T11:29:11.539Z,11.63
2023-08-20T11:31:41.563Z,11.27
2023-08-20T11:34:10.185Z,10.68
2023-08-20T11:36:38.724Z,10.13
2023-08-20T11:39:07.347Z,9.88
2023-08-20T11:41:38.122Z,10.55
2023-08-20T11:44:07.109Z,10.85
2023-08-20T11:46:35.862Z,10.75
2023-08-20T11:49:07.235Z,11.27
2023-08-20T11:51:39.145Z,10.75
2023-08-20T11:54:08.910Z,10.20
2023-08-20T11:56:39.819Z,10.15
2023-08-20T11:59:08.397Z,10.05
2023-08-20T12:01:36.876Z,10.60
2023-08-20T12:04:08.349Z,10.73
2023-08-20T12:06:37.517Z,11.00
2023-08-20T12:09:22.401Z,10.35
2023-08-20T12:11:52.142Z,11.25
2023-08-20T12:14:20.908Z,10.93
2023-08-20T12:16:49.586Z,10.57
2023-08-20T12:19:19.690Z,10.68
2023-08-20T12:21:48.119Z,12.00
2023-08-20T12:24:16.596Z,11.27
2023-08-20T12:26:45.239Z,10.98
2023-08-20T12:29:13.796Z,11.25
2023-08-20T12:31:42.967Z,10.57
2023-08-20T12:34:11.572Z,11.75
2023-08-20T12:36:41.466Z,11.90
2023-08-20T12:39:10.140Z,10.27
2023-08-20T12:41:38.547Z,14.10
2023-08-20T12:44:07.935Z,16.48
2023-08-20T12:46:36.503Z,13.02
2023-08-20T12:49:05.349Z,12.43
2023-08-20T12:51:33.832Z,11.35
2023-08-20T12:54:03.761Z,12.02
2023-08-20T12:56:32.299Z,11.18
2023-08-20T12:59:00.869Z,10.68
2023-08-20T13:01:29.430Z,12.88
2023-08-20T13:03:58.839Z,10.98
2023-08-20T13:06:28.387Z,24.25
2023-08-20T13:08:57.517Z,18.45
2023-08-20T13:11:27.893Z,11.75
2023-08-20T13:13:57.167Z,10.73
2023-08-20T13:16:26.656Z,13.70
2023-08-20T13:18:56.050Z,29.10
2023-08-20T13:21:24.559Z,13.85
2023-08-20T13:23:53.063Z,16.85
2023-08-20T13:26:23.583Z,12.00
2023-08-20T13:28:53.655Z,11.02
2023-08-20T13:31:22.408Z,11.52
2023-08-20T13:33:51.372Z,17.73
2023-08-20T13:36:18.843Z,11.57
2023-08-20T13:38:47.370Z,13.98
2023-08-20T13:41:15.953Z,21.08
2023-08-20T13:43:44.406Z,12.57
2023-08-20T13:46:14.326Z,20.23
2023-08-20T13:48:42.844Z,11.02
2023-08-20T13:51:11.591Z,12.50
2023-08-20T13:53:40.098Z,12.75
2023-08-20T13:56:08.589Z,10.93
2023-08-20T13:58:37.052Z,19.33
2023-08-20T14:01:05.522Z,21.70
2023-08-20T14:03:36.651Z,10.65
2023-08-20T14:06:05.192Z,10.27
2023-08-20T14:08:34.436Z,14.65
2023-08-20T14:11:02.920Z,13.60
2023-08-20T14:13:31.448Z,12.90
2023-08-20T14:16:01.535Z,11.23
2023-08-20T14:18:30.172Z,10.00
2023-08-20T14:21:00.273Z,27.02
2023-08-20T14:23:29.266Z,14.57
2023-08-20T14:25:57.708Z,14.55
2023-08-20T14:28:26.281Z,13.48
2023-08-20T14:30:56.376Z,10.18
2023-08-20T14:33:24.906Z,10.32
2023-08-20T14:35:53.355Z,10.73
2023-08-20T14:38:23.143Z,14.90
2023-08-20T14:40:51.580Z,16.13
2023-08-20T14:43:20.043Z,9.63
2023-08-20T14:45:48.583Z,8.38
2023-08-20T14:48:16.997Z,15.18
2023-08-20T14:50:46.540Z,12.77
2023-08-20T14:53:14.948Z,13.13
2023-08-20T14:55:44.853Z,9.70
2023-08-20T14:58:13.928Z,12.43
2023-08-20T15:00:42.431Z,16.25
2023-08-20T15:03:11.552Z,11.68
2023-08-20T15:05:43.027Z,24.63
2023-08-20T15:08:11.874Z,19.90
2023-08-20T15:10:41.162Z,21.02
2023-08-20T15:13:10.965Z,14.93
2023-08-20T15:15:39.463Z,17.90
2023-08-20T15:18:08.282Z,26.52
2023-08-20T15:20:36.844Z,12.52
2023-08-20T15:23:05.718Z,21.33
2023-08-20T15:25:34.176Z,11.95
2023-08-20T15:28:04.828Z,9.82
2023-08-20T15:30:34.722Z,9.63
2023-08-20T15:33:04.896Z,8.52
2023-08-20T15:35:33.445Z,9.30
2023-08-20T15:38:01.983Z,8.50
2023-08-20T15:40:30.438Z,12.07
2023-08-20T15:42:58.855Z,17.63
2023-08-20T15:45:27.268Z,10.20
2023-08-20T15:47:57.116Z,8.98
2023-08-20T15:50:25.885Z,8.82
2023-08-20T15:52:54.379Z,9.45
2023-08-20T15:55:22.874Z,10.18
2023-08-20T15:57:51.861Z,11.38
2023-08-20T16:00:20.881Z,11.35
2023-08-20T16:02:49.552Z,9.23
2023-08-20T16:05:21.664Z,9.73
2023-08-20T16:07:50.148Z,14.65
2023-08-20T16:10:18.730Z,9.90
2023-08-20T16:12:47.157Z,9.27
2023-08-20T16:15:15.791Z,9.30
2023-08-20T16:17:44.294Z,8.73
2023-08-20T16:20:13.721Z,9.48
2023-08-20T16:22:43.470Z,9.55
2023-08-20T16:25:11.972Z,8.27
2023-08-20T16:27:40.531Z,9.60
2023-08-20T16:30:12.353Z,15.55
2023-08-20T16:32:40.875Z,8.63
2023-08-20T16:35:10.290Z,8.35
2023-08-20T16:37:39.375Z,8.90
2023-08-20T16:40:11.131Z,9.40
2023-08-20T16:42:39.653Z,8.77
2023-08-20T16:45:10.197Z,13.13
2023-08-20T16:47:38.823Z,9.02
2023-08-20T16:50:08.532Z,10.05
2023-08-20T16:52:37.362Z,13.20
2023-08-20T16:55:07.132Z,9.30
2023-08-20T16:57:37.197Z,13.98
2023-08-20T17:00:08.508Z,24.95
2023-08-20T17:02:37.443Z,55.38
2023-08-20T17:05:06.935Z,24.85
2023-08-20T17:07:35.698Z,15.05
2023-08-20T17:10:04.444Z,14.07
2023-08-20T17:12:33.217Z,14.10
2023-08-20T17:15:03.625Z,11.82
2023-08-20T17:17:32.786Z,16.77
2023-08-20T17:20:01.434Z,14.02
2023-08-20T17:22:30.626Z,11.25
2023-08-20T17:24:59.305Z,10.77
2023-08-20T17:27:27.741Z,12.40
2023-08-20T17:29:56.162Z,10.38
2023-08-20T17:32:26.012Z,10.13
2023-08-20T17:34:54.609Z,13.30
2023-08-20T17:37:23.740Z,9.85
2023-08-20T17:39:52.240Z,9.70
2023-08-20T17:42:21.471Z,10.63
2023-08-20T17:44:49.894Z,12.60
2023-08-20T17:47:18.365Z,10.55
2023-08-20T17:49:48.215Z,12.38
2023-08-20T17:52:16.877Z,10.85
2023-08-20T17:54:45.480Z,11.70
2023-08-20T17:57:13.933Z,11.50
2023-08-20T17:59:42.397Z,10.98
2023-08-20T18:02:10.826Z,10.10
2023-08-20T18:04:39.317Z,11.02
2023-08-20T18:07:09.223Z,9.75
2023-08-20T18:09:37.874Z,29.40
2023-08-20T18:12:07.224Z,32.28
2023-08-20T18:14:35.685Z,39.90
2023-08-20T18:17:04.150Z,27.85
2023-08-20T18:19:32.619Z,19.90
2023-08-20T18:22:00.999Z,16.38
2023-08-20T18:24:30.843Z,17.70
2023-08-20T18:27:00.636Z,16.77
2023-08-20T18:29:29.080Z,15.68
2023-08-20T18:31:57.607Z,14.80
2023-08-20T18:34:26.035Z,12.98
2023-08-20T18:36:54.459Z,17.08
2023-08-20T18:39:23.466Z,13.35
2023-08-20T18:41:53.438Z,12.55
2023-08-20T18:44:21.991Z,15.65
2023-08-20T18:46:50.445Z,14.63
2023-08-20T18:49:19.437Z,13.75
2023-08-20T18:51:48.133Z,16.35
2023-08-20T18:54:16.721Z,13.93
2023-08-20T18:56:45.171Z,12.82
2023-08-20T18:59:14.981Z,39.88
2023-08-20T19:01:43.557Z,18.35
2023-08-20T19:04:12.073Z,13.15
2023-08-20T19:06:40.552Z,16.00
2023-08-20T19:09:09.748Z,12.57
2023-08-20T19:11:38.220Z,14.35
2023-08-20T19:14:06.741Z,12.73
2023-08-20T19:16:36.745Z,12.25
2023-08-20T19:19:05.316Z,12.27
2023-08-20T19:21:34.114Z,16.13
2023-08-20T19:24:05.481Z,12.35
2023-08-20T19:26:34.711Z,16.80
2023-08-20T19:29:06.090Z,13.43
2023-08-20T19:31:36.111Z,15.02
2023-08-20T19:34:04.791Z,14.82
2023-08-20T19:36:33.297Z,16.58
2023-08-20T19:39:01.733Z,14.77
2023-08-20T19:41:30.847Z,12.55
2023-08-20T19:43:59.371Z,13.65
2023-08-20T19:46:27.825Z,13.75
2023-08-20T19:48:58.381Z,16.52
2023-08-20T19:51:26.880Z,15.50
2023-08-20T19:53:55.713Z,14.57
2023-08-20T19:56:24.640Z,14.95
2023-08-20T19:58:53.047Z,15.23
2023-08-20T20:01:25.846Z,17.10
2023-08-20T20:03:54.460Z,15.15
2023-08-20T20:06:25.871Z,19.75
2023-08-20T20:08:54.605Z,14.90
2023-08-20T20:11:23.234Z,16.25
2023-08-20T20:13:52.593Z,13.75
2023-08-20T20:16:21.017Z,15.38
2023-08-20T20:18:49.759Z,15.30
2023-08-20T20:21:18.554Z,13.73
2023-08-20T20:23:48.664Z,15.65
2023-08-20T20:26:19.169Z,16.42
2023-08-20T20:28:47.566Z,16.05
2023-08-20T20:31:16.042Z,16.20
2023-08-20T20:33:44.698Z,16.52
2023-08-20T20:36:13.064Z,16.10
2023-08-20T20:38:41.498Z,16.38
2023-08-20T20:41:11.898Z,14.10
2023-08-20T20:43:40.376Z,15.27
2023-08-20T20:46:08.927Z,12.75
2023-08-20T20:48:37.438Z,15.65
2023-08-20T20:51:05.862Z,16.75
2023-08-20T20:53:34.429Z,14.18
2023-08-20T20:56:03.527Z,14.38
2023-08-20T20:58:33.423Z,13.07
2023-08-20T21:01:01.962Z,13.85
2023-08-20T21:03:30.482Z,14.70
2023-08-20T21:05:59.366Z,13.40
2023-08-20T21:08:27.888Z,13.90
2023-08-20T21:10:56.423Z,14.43
2023-08-20T21:13:24.897Z,14.23
2023-08-20T21:15:54.737Z,13.10
2023-08-20T21:18:23.287Z,15.57
2023-08-20T21:20:51.804Z,13.73
2023-08-20T21:23:20.241Z,13.50
2023-08-20T21:25:48.635Z,13.35
2023-08-20T21:28:17.288Z,15.55
2023-08-20T21:30:45.784Z,16.15
2023-08-20T21:33:15.684Z,13.63
2023-08-20T21:35:44.231Z,14.10
2023-08-20T21:38:12.703Z,16.02
2023-08-20T21:40:41.161Z,14.75
2023-08-20T21:43:09.576Z,13.27
2023-08-20T21:45:38.100Z,15.38
2023-08-20T21:48:07.721Z,14.73
2023-08-20T21:50:37.662Z,13.52
2023-08-20T21:53:06.508Z,13.00
2023-08-20T21:55:36.165Z,12.95
2023-08-20T21:58:04.657Z,13.90
2023-08-20T22:00:33.238Z,15.02
2023-08-20T22:03:01.778Z,15.80
2023-08-20T22:05:30.307Z,13.45
2023-08-20T22:08:00.282Z,13.77
2023-08-20T22:10:29.316Z,14.75
2023-08-20T22:12:58.150Z,17.27
2023-08-20T22:15:26.888Z,13.95
2023-08-20T22:17:55.352Z,14.23
2023-08-20T22:20:23.943Z,14.75
2023-08-20T22:22:52.357Z,15.38
2023-08-20T22:25:22.447Z,14.90
2023-08-20T22:27:50.908Z,16.92
2023-08-20T22:30:19.440Z,14.70
2023-08-20T22:32:47.881Z,14.98
2023-08-20T22:35:16.352Z,16.25
2023-08-20T22:37:45.259Z,15.88
2023-08-20T22:40:14.216Z,16.02
2023-08-20T22:42:44.018Z,15.23
2023-08-20T22:45:12.538Z,14.32
2023-08-20T22:47:41.002Z,15.25
2023-08-20T22:50:10.555Z,14.75
2023-08-20T22:52:39.127Z,16.00
2023-08-20T22:55:11.190Z,14.38
2023-08-20T22:57:39.619Z,15.15
2023-08-20T23:00:11.846Z,17.60
2023-08-20T23:02:40.604Z,16.08
2023-08-20T23:05:10.009Z,14.38
2023-08-20T23:07:38.894Z,15.23
2023-08-20T23:10:08.381Z,14.05
2023-08-20T23:12:37.154Z,15.13
2023-08-20T23:15:09.330Z,15.82
2023-08-20T23:17:37.928Z,16.70
2023-08-20T23:20:08.421Z,16.15
2023-08-20T23:22:37.352Z,15.10
2023-08-20T23:25:07.282Z,14.73
2023-08-20T23:27:36.280Z,15.20
2023-08-20T23:30:07.280Z,14.88
2023-08-20T23:32:37.324Z,16.08
2023-08-20T23:35:06.586Z,13.65
2023-08-20T23:37:35.143Z,14.15
2023-08-20T23:40:04.690Z,13.43
2023-08-20T23:42:33.303Z,14.07
2023-08-20T23:45:01.785Z,16.80
2023-08-20T23:47:30.310Z,14.77
2023-08-20T23:50:00.315Z,14.18
2023-08-20T23:52:28.794Z,15.13
2023-08-20T23:54:57.319Z,14.80
2023-08-20T23:57:25.944Z,16.98
2023-08-20T23:59:54.477Z,13.77
